Private Wetterstation Wechselburg
Wetterdaten: Woche 27.03.23 - 02.04.23 (KW13)
Datum Zeit Temp. +2m Bodentemp. Temp.+5cm Temp. Wind Windchill X Diff Temp. Feuchte +2m Feuchte +5cm Luftdruck Regen Wind Richtung Sonnenschein Taupunkt Windchill Windben
27.03.2023 00:00 6,1 C 11,7 C 6,0 C 6,1 C 6,1 C 0,0 C 88 % 88 % 1003,4 hPa 0,0 l/m 0,0 km/h (0 Bft) N 0,00 h 4,3 C 6,1 C 0,0 km/h (0 Bft)
27.03.2023 01:00 5,7 C 11,7 C 5,6 C 5,7 C 5,7 C 0,0 C 89 % 88 % 1003,7 hPa 1,4 l/m 0,3 km/h (0 Bft) N 0,00 h 4,0 C 5,7 C 0,1 km/h (0 Bft)
27.03.2023 02:00 4,9 C 11,5 C 4,7 C 4,8 C 4,5 C 0,0 C 89 % 87 % 1004,4 hPa 0,7 l/m 2,9 km/h (1 Bft) N-NW 0,00 h 3,2 C 4,2 C 6,9 km/h (2 Bft)
27.03.2023 03:00 3,0 C 11,4 C 2,5 C 2,7 C 2,0 C 0,0 C 88 % 86 % 1005,9 hPa 2,1 l/m 3,3 km/h (1 Bft) NW 0,00 h 1,3 C 2,0 C 6,5 km/h (2 Bft)
27.03.2023 04:00 2,3 C 11,1 C 2,3 C 2,2 C 2,0 C 0,0 C 89 % 86 % 1006,9 hPa 0,7 l/m 1,0 km/h (0 Bft) NW 0,00 h 0,7 C 2,0 C 2,2 km/h (1 Bft)
27.03.2023 05:00 2,3 C 11,0 C 2,1 C 2,2 C 1,9 C 0,0 C 89 % 86 % 1007,9 hPa 0,0 l/m 1,0 km/h (0 Bft) O 0,00 h 0,7 C 1,9 C 2,2 km/h (1 Bft)
27.03.2023 06:00 2,1 C 10,9 C 1,9 C 1,9 C 1,7 C 0,0 C 89 % 86 % 1009,4 hPa 0,0 l/m 1,4 km/h (1 Bft) W-NW 0,00 h 0,5 C 1,7 C 2,9 km/h (1 Bft)
27.03.2023 07:00 2,0 C 10,7 C 1,8 C 2,1 C 2,0 C 0,1 C 89 % 86 % 1010,7 hPa 0,0 l/m 1,5 km/h (1 Bft) N-NW 0,00 h 0,4 C 2,0 C 1,8 km/h (1 Bft)
27.03.2023 08:00 1,7 C 10,5 C 1,3 C 2,0 C 2,0 C 0,3 C 89 % 85 % 1011,6 hPa 0,0 l/m 2,3 km/h (1 Bft) SW 0,00 h 0,1 C 2,0 C 3,0 km/h (1 Bft)
27.03.2023 09:00 1,8 C 10,1 C 1,6 C 5,0 C 5,0 C 3,1 C 89 % 86 % 1012,5 hPa 0,0 l/m 2,6 km/h (1 Bft) W-SW 0,67 h 0,2 C 5,0 C 4,7 km/h (1 Bft)
27.03.2023 10:00 2,3 C 9,9 C 2,4 C 5,6 C 5,6 C 3,3 C 87 % 86 % 1013,6 hPa 0,0 l/m 2,3 km/h (1 Bft) W-NW 0,50 h 0,2 C 5,6 C 3,3 km/h (1 Bft)
27.03.2023 11:00 3,1 C 9,6 C 3,4 C 6,3 C 6,3 C 3,1 C 80 % 80 % 1014,0 hPa 0,0 l/m 3,2 km/h (1 Bft) SW 0,33 h -0,1 C 6,3 C 6,1 km/h (2 Bft)
27.03.2023 12:00 4,3 C 9,5 C 4,8 C 7,1 C 7,1 C 2,9 C 69 % 78 % 1014,5 hPa 0,0 l/m 4,0 km/h (1 Bft) SO 0,08 h -0,9 C 6,9 C 6,7 km/h (2 Bft)
27.03.2023 13:00 4,9 C 9,4 C 5,2 C 8,7 C 8,7 C 3,7 C 67 % 77 % 1014,9 hPa 0,0 l/m 4,2 km/h (1 Bft) S 0,58 h -0,7 C 8,4 C 6,3 km/h (2 Bft)
27.03.2023 14:00 4,9 C 9,3 C 5,2 C 8,4 C 8,4 C 3,6 C 71 % 78 % 1015,2 hPa 0,0 l/m 3,3 km/h (1 Bft) W-SW 0,58 h 0,0 C 8,4 C 5,6 km/h (1 Bft)
27.03.2023 15:00 5,7 C 9,3 C 5,1 C 9,7 C 9,7 C 4,1 C 67 % 78 % 1015,5 hPa 0,0 l/m 3,6 km/h (1 Bft) W 0,75 h 0,1 C 9,6 C 5,8 km/h (2 Bft)
27.03.2023 16:00 3,2 C 9,5 C 2,2 C 3,2 C 2,7 C 0,2 C 77 % 76 % 1016,2 hPa 0,7 l/m 3,1 km/h (1 Bft) NW 0,00 h -0,5 C 2,4 C 4,4 km/h (1 Bft)
27.03.2023 17:00 2,6 C 9,4 C 2,4 C 2,5 C 1,9 C 0,2 C 83 % 83 % 1017,2 hPa 0,7 l/m 5,9 km/h (2 Bft) W-SW 0,00 h -0,0 C 0,3 C 9,4 km/h (2 Bft)
27.03.2023 18:00 3,0 C 9,2 C 2,1 C 3,9 C 3,8 C 1,0 C 81 % 81 % 1018,0 hPa 0,0 l/m 3,0 km/h (1 Bft) SW 0,33 h 0,1 C 3,7 C 3,3 km/h (1 Bft)
27.03.2023 19:00 2,4 C 9,1 C 1,3 C 2,0 C 1,1 C 0,0 C 81 % 78 % 1018,6 hPa 0,0 l/m 3,4 km/h (1 Bft) S-SW 0,00 h -0,5 C 0,6 C 4,9 km/h (1 Bft)
27.03.2023 20:00 1,7 C 9,1 C 0,6 C 1,3 C 0,4 C 0,0 C 82 % 80 % 1019,5 hPa 0,0 l/m 2,8 km/h (1 Bft) SW 0,00 h -1,0 C 0,4 C 4,8 km/h (1 Bft)
27.03.2023 21:00 1,3 C 9,0 C -0,2 C 0,7 C -0,3 C 0,0 C 83 % 79 % 1019,9 hPa 0,0 l/m 2,5 km/h (1 Bft) SW 0,00 h -1,3 C -0,3 C 4,1 km/h (1 Bft)
27.03.2023 22:00 0,8 C 9,0 C -0,5 C 0,3 C -0,7 C 0,0 C 85 % 82 % 1019,8 hPa 0,0 l/m 2,1 km/h (1 Bft) W-SW 0,00 h -1,5 C -0,7 C 3,2 km/h (1 Bft)
27.03.2023 23:00 1,0 C 8,8 C 0,2 C 0,4 C -0,8 C 0,0 C 85 % 85 % 1019,8 hPa 0,0 l/m 4,2 km/h (1 Bft) S 0,00 h -1,2 C -1,2 C 5,6 km/h (1 Bft)
28.03.2023 00:00 1,3 C 8,6 C 0,1 C 0,4 C -1,4 C 0,0 C 84 % 85 % 1019,8 hPa 0,0 l/m 5,6 km/h (1 Bft) SW 0,00 h -1,1 C -3,4 C 7,9 km/h (2 Bft)
28.03.2023 01:00 1,4 C 8,5 C 0,4 C 0,5 C -1,7 C 0,0 C 83 % 80 % 1020,1 hPa 0,0 l/m 7,5 km/h (2 Bft) SW 0,00 h -1,2 C -4,5 C 9,6 km/h (2 Bft)
28.03.2023 02:00 1,6 C 8,3 C 0,9 C 0,8 C -1,1 C 0,0 C 81 % 76 % 1020,2 hPa 0,0 l/m 7,7 km/h (2 Bft) SW 0,00 h -1,3 C -3,8 C 11,6 km/h (2 Bft)
28.03.2023 03:00 1,6 C 8,2 C 0,9 C 0,8 C -0,9 C 0,0 C 80 % 75 % 1020,1 hPa 0,0 l/m 7,3 km/h (2 Bft) SW 0,00 h -1,4 C -3,6 C 9,2 km/h (2 Bft)
28.03.2023 04:00 1,6 C 8,1 C 1,0 C 0,9 C -0,6 C 0,0 C 80 % 75 % 1020,2 hPa 0,0 l/m 6,7 km/h (2 Bft) W-SW 0,00 h -1,5 C -3,0 C 8,5 km/h (2 Bft)
28.03.2023 05:00 1,5 C 8,0 C 0,9 C 0,8 C -0,6 C 0,0 C 81 % 75 % 1020,4 hPa 0,0 l/m 6,2 km/h (2 Bft) SW 0,00 h -1,4 C -2,6 C 9,7 km/h (2 Bft)
28.03.2023 06:00 1,5 C 8,0 C 0,9 C 1,1 C 0,3 C 0,0 C 81 % 74 % 1021,1 hPa 0,0 l/m 3,9 km/h (1 Bft) SW 0,00 h -1,4 C -0,2 C 6,1 km/h (2 Bft)
28.03.2023 07:00 1,3 C 7,9 C 0,8 C 1,2 C 0,9 C 0,0 C 82 % 74 % 1021,9 hPa 0,0 l/m 2,5 km/h (1 Bft) SW 0,00 h -1,5 C 0,9 C 3,4 km/h (1 Bft)
28.03.2023 08:00 1,5 C 7,8 C 1,3 C 2,6 C 2,6 C 1,1 C 81 % 73 % 1022,8 hPa 0,0 l/m 2,4 km/h (1 Bft) SW 0,25 h -1,4 C 2,6 C 4,5 km/h (1 Bft)
28.03.2023 09:00 1,8 C 7,7 C 1,8 C 3,3 C 3,3 C 1,6 C 78 % 69 % 1023,6 hPa 0,0 l/m 3,1 km/h (1 Bft) SW 0,17 h -1,7 C 3,3 C 6,5 km/h (2 Bft)
28.03.2023 10:00 2,6 C 7,6 C 2,9 C 5,5 C 5,5 C 2,9 C 72 % 60 % 1024,3 hPa 0,0 l/m 3,0 km/h (1 Bft) SW 0,50 h -2,0 C 5,3 C 4,9 km/h (1 Bft)
28.03.2023 11:00 3,6 C 7,6 C 4,6 C 6,1 C 6,1 C 2,5 C 65 % 47 % 1024,8 hPa 0,0 l/m 4,3 km/h (1 Bft) SW 0,08 h -2,4 C 5,7 C 6,1 km/h (2 Bft)
28.03.2023 12:00 4,9 C 7,6 C 7,3 C 8,4 C 8,4 C 3,5 C 60 % 36 % 1025,2 hPa 0,0 l/m 5,0 km/h (1 Bft) W-SW 0,58 h -2,1 C 7,9 C 7,7 km/h (2 Bft)
28.03.2023 13:00 6,0 C 7,7 C 8,0 C 10,4 C 10,4 C 4,4 C 58 % 34 % 1025,2 hPa 0,0 l/m 5,4 km/h (1 Bft) SW 0,83 h -1,6 C 10,2 C 9,6 km/h (2 Bft)
28.03.2023 14:00 6,2 C 7,8 C 7,4 C 9,8 C 9,8 C 3,6 C 60 % 38 % 1025,1 hPa 0,0 l/m 4,3 km/h (1 Bft) S-SO 0,67 h -0,9 C 9,6 C 6,7 km/h (2 Bft)
28.03.2023 15:00 6,6 C 7,9 C 7,3 C 10,2 C 10,2 C 3,6 C 60 % 38 % 1024,9 hPa 0,0 l/m 3,8 km/h (1 Bft) SW 0,58 h -0,6 C 10,1 C 6,0 km/h (2 Bft)
28.03.2023 16:00 6,6 C 8,1 C 7,0 C 9,1 C 9,1 C 2,5 C 62 % 40 % 1025,2 hPa 0,0 l/m 2,3 km/h (1 Bft) SW 0,17 h -0,3 C 9,1 C 4,0 km/h (1 Bft)
28.03.2023 17:00 6,4 C 8,3 C 6,4 C 7,7 C 7,7 C 1,3 C 62 % 41 % 1024,8 hPa 0,0 l/m 1,9 km/h (1 Bft) SW 0,00 h -0,4 C 7,7 C 3,2 km/h (1 Bft)
28.03.2023 18:00 5,9 C 8,4 C 5,6 C 6,3 C 6,3 C 0,4 C 64 % 46 % 1024,9 hPa 0,0 l/m 1,8 km/h (1 Bft) SW 0,00 h -0,4 C 6,3 C 2,3 km/h (1 Bft)
28.03.2023 19:00 5,5 C 8,4 C 3,9 C 5,3 C 4,7 C 0,1 C 64 % 47 % 1024,5 hPa 0,0 l/m 0,1 km/h (0 Bft) N 0,00 h -0,7 C 4,7 C 0,0 km/h (0 Bft)
28.03.2023 20:00 3,4 C 8,6 C 1,0 C 2,6 C 1,1 C 0,0 C 68 % 54 % 1024,3 hPa 0,0 l/m 0,0 km/h (0 Bft) N 0,00 h -2,0 C 1,1 C 0,0 km/h (0 Bft)
28.03.2023 21:00 1,5 C 8,7 C -0,4 C 0,7 C -0,8 C 0,0 C 75 % 60 % 1024,3 hPa 0,0 l/m 0,0 km/h (0 Bft) N 0,00 h -2,5 C -0,8 C 0,0 km/h (0 Bft)
28.03.2023 22:00 0,3 C 8,7 C -1,1 C -0,3 C -1,6 C 0,0 C 79 % 63 % 1024,2 hPa 0,0 l/m 0,0 km/h (0 Bft) N 0,00 h -3,0 C -1,6 C 0,0 km/h (0 Bft)
28.03.2023 23:00 -0,4 C 8,8 C -1,6 C -1,0 C -2,2 C 0,0 C 81 % 66 % 1023,8 hPa 0,0 l/m 0,0 km/h (0 Bft) N 0,00 h -3,2 C -2,2 C 0,0 km/h (0 Bft)
29.03.2023 00:00 -0,9 C 8,6 C -1,9 C -1,4 C -2,4 C 0,0 C 83 % 67 % 1023,5 hPa 0,0 l/m 0,0 km/h (0 Bft) N 0,00 h -3,4 C -2,4 C 0,0 km/h (0 Bft)
29.03.2023 01:00 -0,8 C 8,6 C -1,3 C -1,2 C -1,8 C 0,0 C 84 % 69 % 1022,8 hPa 0,0 l/m 0,0 km/h (0 Bft) N 0,00 h -3,1 C -1,8 C 0,0 km/h (0 Bft)
29.03.2023 02:00 -0,9 C 8,5 C -1,6 C -1,3 C -2,1 C 0,0 C 85 % 69 % 1022,2 hPa 0,0 l/m 0,0 km/h (0 Bft) N 0,00 h -3,0 C -2,1 C 0,0 km/h (0 Bft)
29.03.2023 03:00 -0,7 C 8,4 C -1,0 C -1,0 C -1,5 C 0,0 C 86 % 71 % 1021,6 hPa 0,0 l/m 0,0 km/h (0 Bft) N 0,00 h -2,8 C -1,5 C 0,0 km/h (0 Bft)
29.03.2023 04:00 -0,5 C 8,3 C -0,8 C -0,7 C -1,3 C 0,0 C 86 % 70 % 1021,2 hPa 0,0 l/m 0,0 km/h (0 Bft) N 0,00 h -2,5 C -1,3 C 0,0 km/h (0 Bft)
29.03.2023 05:00 -0,2 C 8,3 C -0,5 C -0,5 C -1,1 C 0,0 C 87 % 70 % 1020,2 hPa 0,0 l/m 0,0 km/h (0 Bft) N 0,00 h -2,2 C -1,1 C 0,0 km/h (0 Bft)
29.03.2023 06:00 0,2 C 8,3 C -0,2 C -0,1 C -0,4 C 0,0 C 87 % 70 % 1019,8 hPa 0,0 l/m 0,0 km/h (0 Bft) N 0,00 h -1,8 C -0,4 C 0,0 km/h (0 Bft)
29.03.2023 07:00 0,8 C 8,2 C 0,8 C 0,8 C 0,6 C 0,1 C 87 % 71 % 1019,6 hPa 0,0 l/m 0,0 km/h (0 Bft) N 0,00 h -1,1 C 0,6 C 0,0 km/h (0 Bft)
29.03.2023 08:00 2,4 C 8,0 C 2,5 C 2,8 C 2,8 C 0,4 C 88 % 70 % 1019,2 hPa 0,0 l/m 1,8 km/h (1 Bft) S-SO 0,00 h 0,6 C 2,8 C 5,1 km/h (1 Bft)
29.03.2023 09:00 4,0 C 7,9 C 4,0 C 4,6 C 4,6 C 0,6 C 85 % 66 % 1019,2 hPa 0,0 l/m 3,3 km/h (1 Bft) S 0,00 h 1,7 C 4,5 C 4,3 km/h (1 Bft)
29.03.2023 10:00 5,1 C 8,0 C 5,4 C 6,5 C 6,5 C 1,4 C 82 % 60 % 1019,3 hPa 0,0 l/m 2,5 km/h (1 Bft) S 0,00 h 2,2 C 6,5 C 4,3 km/h (1 Bft)
29.03.2023 11:00 6,4 C 8,0 C 7,0 C 8,4 C 8,4 C 2,0 C 78 % 55 % 1019,3 hPa 0,0 l/m 2,4 km/h (1 Bft) S-SW 0,00 h 2,8 C 8,4 C 4,2 km/h (1 Bft)
29.03.2023 12:00 8,0 C 8,1 C 8,9 C 10,8 C 10,8 C 2,9 C 74 % 50 % 1018,8 hPa 0,0 l/m 3,0 km/h (1 Bft) S 0,25 h 3,6 C 10,8 C 6,0 km/h (2 Bft)
29.03.2023 13:00 9,4 C 8,3 C 10,4 C 12,4 C 12,4 C 3,0 C 69 % 46 % 1018,3 hPa 0,0 l/m 4,7 km/h (1 Bft) SW 0,33 h 3,9 C 12,4 C 5,8 km/h (2 Bft)
29.03.2023 14:00 10,3 C 8,5 C 11,2 C 13,1 C 13,1 C 2,8 C 66 % 45 % 1018,1 hPa 0,0 l/m 4,7 km/h (1 Bft) S-SO 0,17 h 4,3 C 13,1 C 6,2 km/h (2 Bft)
29.03.2023 15:00 11,5 C 8,8 C 12,2 C 14,6 C 14,5 C 3,1 C 64 % 45 % 1017,5 hPa 0,0 l/m 5,9 km/h (2 Bft) SW 0,33 h 4,9 C 14,5 C 7,7 km/h (2 Bft)
29.03.2023 16:00 12,5 C 9,0 C 12,9 C 15,7 C 15,7 C 3,2 C 62 % 44 % 1017,2 hPa 0,0 l/m 5,8 km/h (2 Bft) SW 0,50 h 5,5 C 15,7 C 8,2 km/h (2 Bft)
29.03.2023 17:00 12,9 C 9,3 C 12,7 C 14,4 C 14,4 C 1,5 C 62 % 47 % 1016,6 hPa 0,0 l/m 6,2 km/h (2 Bft) SW 0,00 h 5,8 C 14,4 C 8,2 km/h (2 Bft)
29.03.2023 18:00 12,3 C 9,6 C 11,7 C 12,9 C 12,9 C 0,5 C 65 % 51 % 1016,2 hPa 0,0 l/m 4,0 km/h (1 Bft) S 0,00 h 6,0 C 12,9 C 5,9 km/h (2 Bft)
29.03.2023 19:00 11,5 C 9,9 C 10,4 C 11,4 C 11,2 C 0,0 C 68 % 55 % 1016,0 hPa 0,0 l/m 2,0 km/h (1 Bft) SW 0,00 h 5,8 C 11,2 C 2,0 km/h (1 Bft)
29.03.2023 20:00 10,6 C 10,0 C 9,5 C 10,3 C 9,9 C 0,0 C 70 % 56 % 1016,3 hPa 0,0 l/m 1,4 km/h (1 Bft) S-SO 0,00 h 5,3 C 9,9 C 3,0 km/h (1 Bft)
29.03.2023 21:00 10,3 C 10,0 C 9,0 C 10,2 C 9,9 C 0,0 C 71 % 58 % 1016,0 hPa 0,0 l/m 3,5 km/h (1 Bft) S 0,00 h 5,2 C 9,9 C 4,5 km/h (1 Bft)
29.03.2023 22:00 10,1 C 10,1 C 9,0 C 10,0 C 9,8 C 0,0 C 72 % 58 % 1015,6 hPa 0,0 l/m 4,0 km/h (1 Bft) S 0,00 h 5,2 C 9,7 C 4,7 km/h (1 Bft)
29.03.2023 23:00 10,0 C 10,2 C 8,7 C 9,9 C 9,6 C 0,0 C 73 % 60 % 1015,1 hPa 0,0 l/m 2,9 km/h (1 Bft) S-SO 0,00 h 5,3 C 9,6 C 3,3 km/h (1 Bft)
30.03.2023 00:00 9,7 C 10,2 C 8,8 C 9,5 C 9,3 C 0,0 C 75 % 63 % 1014,7 hPa 0,0 l/m 1,0 km/h (0 Bft) SO 0,00 h 5,4 C 9,3 C 2,3 km/h (1 Bft)
30.03.2023 01:00 9,8 C 10,5 C 8,7 C 9,4 C 8,7 C 0,0 C 78 % 71 % 1014,3 hPa 0,0 l/m 0,9 km/h (0 Bft) NO 0,00 h 6,1 C 8,7 C 0,9 km/h (0 Bft)
30.03.2023 02:00 9,3 C 10,8 C 8,4 C 9,0 C 8,4 C 0,0 C 82 % 75 % 1013,1 hPa 0,0 l/m 0,4 km/h (0 Bft) W-SW 0,00 h 6,4 C 8,4 C 1,2 km/h (1 Bft)
30.03.2023 03:00 8,8 C 10,9 C 7,8 C 8,6 C 8,1 C 0,0 C 84 % 76 % 1012,4 hPa 0,0 l/m 0,0 km/h (0 Bft) N 0,00 h 6,2 C 8,1 C 0,0 km/h (0 Bft)
30.03.2023 04:00 8,7 C 10,9 C 7,8 C 8,7 C 8,6 C 0,0 C 85 % 78 % 1011,1 hPa 0,0 l/m 0,0 km/h (0 Bft) N 0,00 h 6,4 C 8,6 C 0,0 km/h (0 Bft)
30.03.2023 05:00 9,2 C 10,6 C 8,6 C 9,3 C 9,2 C 0,1 C 85 % 75 % 1010,3 hPa 0,0 l/m 2,3 km/h (1 Bft) S-SO 0,00 h 6,8 C 9,2 C 5,7 km/h (1 Bft)
30.03.2023 06:00 11,6 C 10,5 C 10,8 C 11,6 C 11,5 C 0,0 C 74 % 59 % 1010,3 hPa 0,0 l/m 3,8 km/h (1 Bft) S-SO 0,00 h 7,2 C 11,5 C 6,1 km/h (2 Bft)
30.03.2023 07:00 12,1 C 10,6 C 11,3 C 12,1 C 12,0 C 0,0 C 71 % 57 % 1009,9 hPa 0,0 l/m 2,7 km/h (1 Bft) S-SO 0,00 h 7,0 C 12,0 C 4,6 km/h (1 Bft)
30.03.2023 08:00 12,6 C 10,6 C 11,9 C 12,5 C 12,3 C 0,1 C 71 % 58 % 1009,7 hPa 0,0 l/m 7,0 km/h (2 Bft) S-SO 0,00 h 7,5 C 12,3 C 13,1 km/h (3 Bft)
30.03.2023 09:00 13,2 C 10,8 C 12,5 C 15,3 C 15,3 C 2,2 C 72 % 60 % 1009,3 hPa 0,0 l/m 6,2 km/h (2 Bft) S 0,25 h 8,3 C 15,3 C 11,9 km/h (2 Bft)
30.03.2023 10:00 14,3 C 11,0 C 14,0 C 15,4 C 15,4 C 1,1 C 69 % 55 % 1009,1 hPa 0,0 l/m 6,5 km/h (2 Bft) W-NW 0,00 h 8,6 C 15,4 C 10,6 km/h (2 Bft)
30.03.2023 11:00 13,0 C 11,4 C 11,9 C 12,4 C 11,1 C 0,0 C 77 % 74 % 1009,6 hPa 0,7 l/m 6,6 km/h (2 Bft) W-SW 0,00 h 9,0 C 11,1 C 11,1 km/h (2 Bft)
30.03.2023 12:00 12,8 C 11,6 C 12,8 C 13,5 C 12,7 C 0,9 C 81 % 75 % 1009,6 hPa 0,0 l/m 8,0 km/h (2 Bft) S 0,00 h 9,7 C 12,7 C 10,7 km/h (2 Bft)
30.03.2023 13:00 13,8 C 11,6 C 14,1 C 15,9 C 15,9 C 2,2 C 78 % 67 % 1009,4 hPa 0,0 l/m 7,1 km/h (2 Bft) SW 0,00 h 10,1 C 15,9 C 10,4 km/h (2 Bft)
30.03.2023 14:00 15,2 C 11,7 C 15,5 C 18,1 C 18,1 C 2,9 C 74 % 62 % 1008,4 hPa 0,0 l/m 9,3 km/h (2 Bft) SW 0,35 h 10,6 C 18,1 C 13,3 km/h (3 Bft)
30.03.2023 15:00 16,3 C 11,9 C 16,3 C 19,2 C 19,2 C 3,0 C 70 % 57 % 1007,5 hPa 0,0 l/m 9,8 km/h (2 Bft) SW 0,58 h 10,7 C 19,2 C 15,9 km/h (3 Bft)
30.03.2023 16:00 16,2 C 12,2 C 15,6 C 17,7 C 17,7 C 1,5 C 69 % 61 % 1007,3 hPa 0,0 l/m 7,6 km/h (2 Bft) SW 0,00 h 10,5 C 17,7 C 11,8 km/h (2 Bft)
30.03.2023 17:00 12,7 C 12,7 C 11,2 C 12,4 C 10,7 C 0,2 C 76 % 79 % 1008,2 hPa 1,4 l/m 10,2 km/h (2 Bft) S-SW 0,00 h 8,4 C 9,8 C 15,0 km/h (3 Bft)
30.03.2023 18:00 10,6 C 12,6 C 9,7 C 10,4 C 9,8 C 0,1 C 83 % 89 % 1008,7 hPa 0,0 l/m 5,7 km/h (1 Bft) SW 0,00 h 7,9 C 9,5 C 7,8 km/h (2 Bft)
30.03.2023 19:00 11,1 C 12,3 C 9,4 C 11,2 C 11,0 C 0,3 C 79 % 77 % 1009,0 hPa 0,0 l/m 5,9 km/h (2 Bft) W-SW 0,42 h 7,5 C 11,0 C 8,6 km/h (2 Bft)
30.03.2023 20:00 10,5 C 12,2 C 9,0 C 10,2 C 9,5 C 0,0 C 80 % 77 % 1009,5 hPa 0,0 l/m 5,5 km/h (1 Bft) SO 0,00 h 7,2 C 9,0 C 7,2 km/h (2 Bft)
30.03.2023 21:00 10,2 C 12,2 C 8,9 C 9,8 C 9,2 C 0,0 C 80 % 76 % 1009,5 hPa 0,0 l/m 4,8 km/h (1 Bft) SO 0,00 h 6,9 C 8,9 C 8,0 km/h (2 Bft)
30.03.2023 22:00 9,8 C 12,1 C 8,5 C 9,5 C 9,0 C 0,0 C 81 % 76 % 1009,8 hPa 0,0 l/m 3,7 km/h (1 Bft) S-SO 0,00 h 6,7 C 8,9 C 4,5 km/h (1 Bft)
30.03.2023 23:00 9,7 C 12,0 C 8,6 C 9,5 C 9,1 C 0,0 C 82 % 77 % 1010,0 hPa 0,0 l/m 3,5 km/h (1 Bft) SW 0,00 h 6,8 C 9,1 C 5,0 km/h (1 Bft)
31.03.2023 00:00 9,6 C 11,9 C 8,8 C 9,5 C 9,4 C 0,0 C 82 % 77 % 1009,6 hPa 0,0 l/m 2,6 km/h (1 Bft) SO 0,00 h 6,8 C 9,4 C 3,8 km/h (1 Bft)
31.03.2023 01:00 9,9 C 11,8 C 8,9 C 9,8 C 9,6 C 0,0 C 82 % 77 % 1009,3 hPa 0,0 l/m 3,3 km/h (1 Bft) S-SO 0,00 h 7,0 C 9,5 C 5,9 km/h (2 Bft)
31.03.2023 02:00 9,9 C 11,8 C 8,9 C 9,7 C 9,1 C 0,0 C 82 % 75 % 1008,9 hPa 0,0 l/m 5,1 km/h (1 Bft) S 0,00 h 7,0 C 8,8 C 9,4 km/h (2 Bft)
31.03.2023 03:00 9,9 C 11,7 C 8,9 C 9,8 C 9,4 C 0,0 C 82 % 74 % 1007,8 hPa 0,0 l/m 2,7 km/h (1 Bft) W-SW 0,00 h 7,0 C 9,4 C 4,5 km/h (1 Bft)
31.03.2023 04:00 10,2 C 11,7 C 9,3 C 10,1 C 9,9 C 0,0 C 81 % 73 % 1007,2 hPa 0,0 l/m 3,9 km/h (1 Bft) O-SO 0,00 h 7,1 C 9,8 C 4,1 km/h (1 Bft)
31.03.2023 05:00 10,3 C 11,7 C 9,3 C 10,1 C 9,8 C 0,0 C 81 % 73 % 1006,6 hPa 0,0 l/m 3,8 km/h (1 Bft) S-SO 0,00 h 7,2 C 9,6 C 5,2 km/h (1 Bft)
31.03.2023 06:00 10,3 C 11,7 C 9,5 C 10,1 C 9,7 C 0,0 C 81 % 74 % 1005,7 hPa 0,0 l/m 4,0 km/h (1 Bft) S-SO 0,00 h 7,2 C 9,6 C 4,8 km/h (1 Bft)
31.03.2023 07:00 9,7 C 11,9 C 9,0 C 9,3 C 8,6 C 0,0 C 84 % 86 % 1004,7 hPa 0,0 l/m 3,6 km/h (1 Bft) S 0,00 h 7,2 C 8,3 C 6,3 km/h (2 Bft)
31.03.2023 08:00 10,4 C 11,7 C 10,0 C 10,6 C 10,4 C 0,3 C 83 % 78 % 1003,9 hPa 0,0 l/m 5,6 km/h (1 Bft) S 0,00 h 7,7 C 10,3 C 8,3 km/h (2 Bft)
31.03.2023 09:00 11,6 C 11,5 C 11,4 C 13,1 C 13,1 C 1,5 C 79 % 71 % 1003,4 hPa 0,0 l/m 4,8 km/h (1 Bft) S 0,00 h 8,0 C 13,1 C 6,9 km/h (2 Bft)
31.03.2023 10:00 11,5 C 11,7 C 10,9 C 11,6 C 11,4 C 0,3 C 78 % 70 % 1003,1 hPa 0,0 l/m 5,3 km/h (1 Bft) S-SO 0,00 h 7,7 C 11,4 C 8,9 km/h (2 Bft)
31.03.2023 11:00 11,2 C 11,7 C 10,9 C 11,3 C 11,1 C 0,2 C 79 % 70 % 1002,5 hPa 0,0 l/m 5,9 km/h (2 Bft) SO 0,00 h 7,7 C 11,1 C 7,2 km/h (2 Bft)
31.03.2023 12:00 10,6 C 12,1 C 10,2 C 10,3 C 9,7 C 0,0 C 83 % 78 % 1001,4 hPa 0,7 l/m 5,0 km/h (1 Bft) S-SO 0,00 h 7,8 C 9,4 C 6,2 km/h (2 Bft)
31.03.2023 13:00 10,1 C 12,2 C 9,6 C 9,9 C 9,5 C 0,0 C 85 % 89 % 1000,5 hPa 2,1 l/m 4,0 km/h (1 Bft) N-NO 0,00 h 7,7 C 9,5 C 5,5 km/h (1 Bft)
31.03.2023 14:00 10,0 C 12,2 C 9,9 C 9,9 C 9,8 C 0,0 C 87 % 90 % 999,2 hPa 0,0 l/m 3,3 km/h (1 Bft) S 0,00 h 7,9 C 9,7 C 4,6 km/h (1 Bft)
31.03.2023 15:00 11,8 C 11,9 C 11,7 C 13,6 C 13,6 C 1,8 C 80 % 80 % 998,6 hPa 0,0 l/m 9,4 km/h (2 Bft) SW 0,17 h 8,5 C 13,6 C 11,7 km/h (2 Bft)
31.03.2023 16:00 13,1 C 11,8 C 12,5 C 15,2 C 15,1 C 2,1 C 74 % 70 % 998,0 hPa 0,0 l/m 7,9 km/h (2 Bft) SW 0,10 h 8,6 C 15,1 C 11,8 km/h (2 Bft)
31.03.2023 17:00 12,8 C 11,8 C 12,1 C 13,6 C 13,6 C 0,8 C 71 % 64 % 997,9 hPa 0,0 l/m 8,4 km/h (2 Bft) SW 0,00 h 7,7 C 13,6 C 11,0 km/h (2 Bft)
31.03.2023 18:00 12,0 C 11,8 C 10,8 C 12,1 C 12,0 C 0,2 C 72 % 65 % 998,0 hPa 0,0 l/m 6,0 km/h (2 Bft) S 0,00 h 7,0 C 12,0 C 7,0 km/h (2 Bft)
31.03.2023 19:00 11,3 C 11,8 C 10,2 C 11,2 C 11,1 C 0,0 C 73 % 63 % 998,0 hPa 0,0 l/m 2,5 km/h (1 Bft) W-SW 0,00 h 6,6 C 11,1 C 4,0 km/h (1 Bft)
31.03.2023 20:00 10,8 C 11,9 C 10,0 C 10,6 C 10,4 C 0,0 C 75 % 64 % 998,5 hPa 0,0 l/m 4,9 km/h (1 Bft) N-NO 0,00 h 6,6 C 10,4 C 6,1 km/h (2 Bft)
31.03.2023 21:00 10,2 C 11,9 C 9,4 C 9,9 C 9,4 C 0,0 C 78 % 69 % 998,7 hPa 0,0 l/m 3,6 km/h (1 Bft) S-SO 0,00 h 6,4 C 9,4 C 5,4 km/h (1 Bft)
31.03.2023 22:00 9,4 C 12,1 C 8,7 C 9,1 C 8,3 C 0,0 C 82 % 77 % 999,0 hPa 0,0 l/m 2,4 km/h (1 Bft) S-SO 0,00 h 6,6 C 8,2 C 4,5 km/h (1 Bft)
31.03.2023 23:00 9,2 C 12,0 C 8,7 C 8,9 C 8,1 C 0,0 C 85 % 78 % 999,0 hPa 0,0 l/m 3,9 km/h (1 Bft) S 0,00 h 6,8 C 7,9 C 6,1 km/h (2 Bft)
01.04.2023 00:00 9,3 C 11,9 C 8,7 C 8,9 C 8,2 C 0,0 C 84 % 77 % 999,0 hPa 0,7 l/m 3,3 km/h (1 Bft) S-SO 0,00 h 6,7 C 8,2 C 4,4 km/h (1 Bft)
01.04.2023 01:00 9,0 C 12,1 C 8,4 C 8,6 C 8,1 C 0,0 C 86 % 86 % 999,0 hPa 0,0 l/m 4,1 km/h (1 Bft) S-SO 0,00 h 6,7 C 7,9 C 6,4 km/h (2 Bft)
01.04.2023 02:00 8,8 C 12,1 C 8,3 C 8,6 C 8,1 C 0,0 C 87 % 89 % 999,0 hPa 0,7 l/m 3,6 km/h (1 Bft) S 0,00 h 6,8 C 8,0 C 6,3 km/h (2 Bft)
01.04.2023 03:00 8,8 C 12,0 C 8,3 C 8,6 C 8,0 C 0,0 C 87 % 89 % 998,9 hPa 0,7 l/m 2,7 km/h (1 Bft) O-SO 0,00 h 6,8 C 8,0 C 3,9 km/h (1 Bft)
01.04.2023 04:00 9,0 C 11,9 C 8,4 C 8,6 C 8,0 C 0,0 C 86 % 80 % 998,9 hPa 0,0 l/m 3,0 km/h (1 Bft) W-SW 0,00 h 6,8 C 8,0 C 4,3 km/h (1 Bft)
01.04.2023 05:00 9,2 C 11,7 C 8,5 C 8,9 C 8,4 C 0,0 C 84 % 74 % 998,9 hPa 0,0 l/m 3,1 km/h (1 Bft) SO 0,00 h 6,6 C 8,4 C 3,5 km/h (1 Bft)
01.04.2023 06:00 8,8 C 11,8 C 8,0 C 8,5 C 7,7 C 0,0 C 84 % 79 % 999,2 hPa 0,7 l/m 2,4 km/h (1 Bft) S 0,00 h 6,3 C 7,7 C 3,3 km/h (1 Bft)
01.04.2023 07:00 8,9 C 11,6 C 8,3 C 8,7 C 8,3 C 0,0 C 84 % 76 % 999,6 hPa 0,0 l/m 3,0 km/h (1 Bft) SO 0,00 h 6,4 C 8,3 C 4,5 km/h (1 Bft)
01.04.2023 08:00 9,4 C 11,5 C 9,0 C 10,0 C 10,0 C 0,6 C 82 % 71 % 999,9 hPa 0,0 l/m 2,8 km/h (1 Bft) O-NO 0,00 h 6,5 C 10,0 C 5,1 km/h (1 Bft)
01.04.2023 09:00 9,9 C 11,5 C 9,7 C 10,6 C 10,6 C 0,7 C 82 % 71 % 1000,1 hPa 0,0 l/m 3,5 km/h (1 Bft) S 0,00 h 6,9 C 10,6 C 5,7 km/h (1 Bft)
01.04.2023 10:00 10,3 C 11,5 C 10,4 C 11,8 C 11,8 C 1,5 C 81 % 69 % 1000,6 hPa 0,0 l/m 3,8 km/h (1 Bft) SW 0,00 h 7,1 C 11,8 C 5,4 km/h (1 Bft)
01.04.2023 11:00 10,9 C 11,4 C 11,0 C 12,5 C 12,5 C 1,6 C 80 % 70 % 1000,8 hPa 0,0 l/m 3,3 km/h (1 Bft) SW 0,00 h 7,5 C 12,5 C 5,0 km/h (1 Bft)
01.04.2023 12:00 11,1 C 11,5 C 11,0 C 11,6 C 11,5 C 0,5 C 76 % 67 % 1001,1 hPa 0,0 l/m 7,0 km/h (2 Bft) SW 0,00 h 7,2 C 11,5 C 10,0 km/h (2 Bft)
01.04.2023 13:00 11,7 C 11,5 C 11,8 C 13,2 C 13,2 C 1,5 C 74 % 62 % 1001,1 hPa 0,0 l/m 6,3 km/h (2 Bft) SW 0,00 h 7,2 C 13,2 C 9,0 km/h (2 Bft)
01.04.2023 14:00 11,9 C 11,6 C 12,3 C 14,0 C 14,0 C 2,1 C 75 % 63 % 1001,3 hPa 0,0 l/m 4,8 km/h (1 Bft) S 0,00 h 7,6 C 14,0 C 7,1 km/h (2 Bft)
01.04.2023 15:00 11,0 C 11,8 C 11,0 C 11,2 C 11,1 C 0,2 C 79 % 71 % 1001,7 hPa 0,0 l/m 3,5 km/h (1 Bft) SW 0,00 h 7,6 C 11,1 C 4,5 km/h (1 Bft)
01.04.2023 16:00 10,9 C 11,9 C 10,9 C 11,0 C 10,9 C 0,1 C 82 % 77 % 1002,1 hPa 0,0 l/m 2,3 km/h (1 Bft) S 0,00 h 8,0 C 10,9 C 4,0 km/h (1 Bft)
01.04.2023 17:00 11,6 C 11,9 C 11,4 C 12,6 C 12,6 C 1,0 C 79 % 70 % 1002,2 hPa 0,0 l/m 3,3 km/h (1 Bft) S-SO 0,00 h 8,0 C 12,6 C 4,4 km/h (1 Bft)
01.04.2023 18:00 11,2 C 12,3 C 10,3 C 11,1 C 10,8 C 0,1 C 81 % 77 % 1002,3 hPa 0,0 l/m 0,6 km/h (0 Bft) S 0,00 h 7,9 C 10,8 C 0,2 km/h (0 Bft)
01.04.2023 19:00 10,2 C 12,4 C 9,4 C 10,0 C 9,4 C 0,0 C 84 % 88 % 1002,9 hPa 1,4 l/m 0,0 km/h (0 Bft) N 0,00 h 7,6 C 9,4 C 0,0 km/h (0 Bft)
01.04.2023 20:00 9,7 C 12,4 C 9,0 C 9,6 C 9,2 C 0,0 C 86 % 89 % 1003,6 hPa 0,0 l/m 0,0 km/h (0 Bft) N 0,00 h 7,5 C 9,2 C 0,0 km/h (0 Bft)
01.04.2023 21:00 9,2 C 12,4 C 8,6 C 9,0 C 8,7 C 0,0 C 87 % 89 % 1004,0 hPa 0,0 l/m 0,0 km/h (0 Bft) N 0,00 h 7,2 C 8,7 C 0,0 km/h (0 Bft)
01.04.2023 22:00 8,9 C 12,4 C 8,5 C 8,8 C 8,6 C 0,0 C 87 % 89 % 1004,9 hPa 0,0 l/m 0,0 km/h (0 Bft) N 0,00 h 6,9 C 8,6 C 0,0 km/h (0 Bft)
01.04.2023 23:00 9,0 C 12,4 C 8,6 C 8,9 C 8,8 C 0,0 C 88 % 89 % 1005,7 hPa 0,0 l/m 0,1 km/h (0 Bft) N 0,00 h 7,1 C 8,8 C 0,0 km/h (0 Bft)
02.04.2023 00:00 8,3 C 12,3 C 7,9 C 8,2 C 8,1 C 0,0 C 88 % 89 % 1006,0 hPa 0,7 l/m 0,2 km/h (0 Bft) N 0,00 h 6,5 C 8,1 C 1,1 km/h (0 Bft)
02.04.2023 01:00 7,2 C 12,2 C 6,9 C 7,1 C 7,0 C 0,0 C 88 % 89 % 1006,4 hPa 0,0 l/m 1,2 km/h (1 Bft) O-NO 0,00 h 5,4 C 7,0 C 2,6 km/h (1 Bft)
02.04.2023 02:00 5,8 C 12,1 C 5,7 C 5,8 C 5,8 C 0,0 C 89 % 88 % 1007,3 hPa 1,4 l/m 2,1 km/h (1 Bft) O-NO 0,00 h 4,2 C 5,8 C 3,2 km/h (1 Bft)
02.04.2023 03:00 5,0 C 12,0 C 5,0 C 5,0 C 5,0 C 0,1 C 89 % 88 % 1008,2 hPa 0,7 l/m 2,8 km/h (1 Bft) NO 0,00 h 3,3 C 5,0 C 4,5 km/h (1 Bft)
02.04.2023 04:00 4,3 C 11,8 C 4,6 C 4,2 C 3,9 C 0,1 C 89 % 87 % 1009,2 hPa 0,7 l/m 4,5 km/h (1 Bft) O-NO 0,00 h 2,7 C 3,2 C 5,8 km/h (2 Bft)
02.04.2023 05:00 3,8 C 11,6 C 4,1 C 4,0 C 4,0 C 0,3 C 89 % 87 % 1010,3 hPa 0,0 l/m 3,0 km/h (1 Bft) O-NO 0,00 h 2,1 C 4,0 C 3,7 km/h (1 Bft)
02.04.2023 06:00 3,1 C 11,4 C 3,5 C 3,2 C 3,0 C 0,1 C 89 % 87 % 1011,3 hPa 0,0 l/m 3,7 km/h (1 Bft) O-NO 0,08 h 1,5 C 3,0 C 4,4 km/h (1 Bft)
02.04.2023 07:00 2,5 C 11,4 C 3,0 C 2,8 C 2,8 C 0,3 C 89 % 87 % 1012,6 hPa 0,0 l/m 3,1 km/h (1 Bft) NO 0,00 h 0,9 C 2,8 C 4,1 km/h (1 Bft)
02.04.2023 08:00 2,0 C 11,1 C 2,5 C 1,9 C 1,8 C 0,0 C 89 % 86 % 1014,0 hPa 0,0 l/m 3,9 km/h (1 Bft) NO 0,00 h 0,4 C 1,5 C 5,6 km/h (1 Bft)
02.04.2023 09:00 1,6 C 11,0 C 2,3 C 1,5 C 1,3 C 0,0 C 89 % 86 % 1015,6 hPa 0,0 l/m 4,2 km/h (1 Bft) O-NO 0,00 h -0,0 C 0,7 C 5,3 km/h (1 Bft)
02.04.2023 10:00 1,5 C 10,7 C 2,5 C 2,7 C 2,6 C 1,2 C 89 % 86 % 1016,9 hPa 0,0 l/m 3,3 km/h (1 Bft) NO 0,00 h -0,1 C 2,4 C 4,1 km/h (1 Bft)
02.04.2023 11:00 2,0 C 10,4 C 3,1 C 4,2 C 4,2 C 2,2 C 89 % 72 % 1018,0 hPa 0,0 l/m 2,9 km/h (1 Bft) NO 0,00 h 0,4 C 4,0 C 3,3 km/h (1 Bft)
02.04.2023 12:00 2,4 C 10,2 C 3,1 C 4,4 C 4,4 C 2,0 C 89 % 68 % 1019,4 hPa 0,0 l/m 0,3 km/h (0 Bft) N 0,00 h 0,8 C 4,4 C 0,5 km/h (0 Bft)
02.04.2023 13:00 2,5 C 10,1 C 3,2 C 4,1 C 4,1 C 1,6 C 89 % 69 % 1020,4 hPa 0,0 l/m 0,0 km/h (0 Bft) N 0,00 h 0,9 C 4,1 C 0,0 km/h (0 Bft)
02.04.2023 14:00 3,0 C 10,0 C 3,6 C 4,7 C 4,7 C 1,8 C 88 % 68 % 1021,2 hPa 0,0 l/m 0,0 km/h (0 Bft) N 0,00 h 1,2 C 4,7 C 0,1 km/h (0 Bft)
02.04.2023 15:00 3,8 C 9,8 C 4,5 C 6,1 C 6,1 C 2,3 C 87 % 66 % 1021,9 hPa 0,0 l/m 0,0 km/h (0 Bft) N 0,00 h 1,8 C 6,1 C 0,0 km/h (0 Bft)
02.04.2023 16:00 4,1 C 9,7 C 4,3 C 5,3 C 5,3 C 1,2 C 84 % 62 % 1022,7 hPa 0,0 l/m 0,2 km/h (0 Bft) N 0,00 h 1,6 C 5,3 C 0,3 km/h (0 Bft)
02.04.2023 17:00 4,3 C 9,7 C 4,3 C 5,2 C 5,2 C 0,9 C 79 % 56 % 1023,2 hPa 0,0 l/m 0,4 km/h (0 Bft) N 0,00 h 1,0 C 5,2 C 0,6 km/h (0 Bft)
02.04.2023 18:00 4,1 C 9,6 C 4,0 C 4,5 C 4,5 C 0,4 C 77 % 56 % 1023,9 hPa 0,0 l/m 0,3 km/h (0 Bft) N 0,00 h 0,5 C 4,5 C 0,9 km/h (0 Bft)
02.04.2023 19:00 3,9 C 9,6 C 3,6 C 3,9 C 3,8 C 0,0 C 78 % 59 % 1024,4 hPa 0,0 l/m 0,0 km/h (0 Bft) N 0,00 h 0,5 C 3,8 C 0,0 km/h (0 Bft)
02.04.2023 20:00 3,7 C 9,6 C 3,1 C 3,5 C 3,2 C 0,0 C 79 % 62 % 1024,8 hPa 0,0 l/m 0,0 km/h (0 Bft) N 0,00 h 0,3 C 3,2 C 0,0 km/h (0 Bft)
02.04.2023 21:00 3,4 C 9,5 C 2,9 C 3,3 C 3,0 C 0,0 C 80 % 64 % 1025,8 hPa 0,0 l/m 0,0 km/h (0 Bft) N 0,00 h 0,2 C 3,0 C 0,0 km/h (0 Bft)
02.04.2023 22:00 3,4 C 9,5 C 3,1 C 3,3 C 3,1 C 0,0 C 81 % 63 % 1026,0 hPa 0,0 l/m 0,0 km/h (0 Bft) N 0,00 h 0,4 C 3,1 C 0,0 km/h (0 Bft)
02.04.2023 23:00 3,5 C 9,5 C 3,2 C 3,5 C 3,3 C 0,0 C 80 % 59 % 1026,8 hPa 0,0 l/m 0,1 km/h (0 Bft) N 0,00 h 0,4 C 3,3 C 0,0 km/h (0 Bft)
Min-Datum _ 29.03.23 28.03.23 29.03.23 29.03.23 29.03.23 27.03.23 28.03.23 28.03.23 31.03.23 - 27.03.23 - - 29.03.23 28.03.23 27.03.23
_ Min-Zeit 00:28 09:40 00:05 00:00 00:00 00:00 13:20 13:00 16:44 - 00:00 - - 00:00 01:10 00:00
Minimum _ -1,0 C 7,6 C -2,2 C -1,6 C -2,9 C 0,0 C 57 % 32 % 997,7 hPa - 0,0 km/h (0 Bft) - - -3,6 C -5,5 C 0,0 km/h (0 Bft)
Max-Datum _ 30.03.23 30.03.23 30.03.23 30.03.23 30.03.23 28.03.23 27.03.23 30.03.23 02.04.23 27.03.23 30.03.23 - 30.03.23 30.03.23 30.03.23 30.03.23
_ Max-Zeit 15:55 17:35 15:55 15:55 15:55 13:45 00:55 17:40 23:05 03:00 17:10 - 14:26 15:15 15:55 17:05
Maximum _ 17,1 C 12,9 C 17,0 C 20,6 C 20,6 C 6,3 C 89 % 90 % 1027,0 hPa 2,1 l/m 15,1 km/h
S-SW (3 Bft)
- 0,25 h 11,2 C 20,6 C 37,5 km/h
S-SW (5 Bft)
Durchschnitt _ 6,9 C 10,4 C 6,5 C 7,4 C 7,1 C 0,7 C 80 % 71 % 1012,3 hPa #18,5 l/m 3,2 km/h (1 Bft) SW #11:12 h 3,5 C 6,9 C 4,8 km/h (1 Bft)
2023 www.wetterstation-wechselburg.de